createdAt,value
2019-05-01T00:01:32.742Z,99.90
2019-05-01T00:04:25.209Z,99.90
2019-05-01T00:06:56.335Z,99.90
2019-05-01T00:09:23.950Z,99.90
2019-05-01T00:11:51.300Z,99.90
2019-05-01T00:14:25.763Z,99.90
2019-05-01T00:16:53.138Z,99.90
2019-05-01T00:19:20.478Z,99.90
2019-05-01T00:21:47.964Z,99.90
2019-05-01T00:24:15.298Z,99.90
2019-05-01T00:26:42.605Z,99.90
2019-05-01T00:29:09.926Z,99.90
2019-05-01T00:31:37.378Z,99.90
2019-05-01T00:34:04.714Z,99.90
2019-05-01T00:36:31.996Z,99.90
2019-05-01T00:38:59.419Z,99.90
2019-05-01T00:41:26.661Z,99.90
2019-05-01T00:43:54.033Z,99.90
2019-05-01T00:46:21.327Z,99.90
2019-05-01T00:48:48.629Z,99.90
2019-05-01T00:51:16.000Z,99.90
2019-05-01T00:53:43.456Z,99.90
2019-05-01T00:56:23.292Z,99.90
2019-05-01T00:58:59.416Z,99.90
2019-05-01T01:01:47.523Z,99.90
2019-05-01T01:04:16.647Z,99.90
2019-05-01T01:06:44.073Z,99.90
2019-05-01T01:09:11.483Z,99.90
2019-05-01T01:11:38.758Z,99.90
2019-05-01T01:14:06.040Z,99.90
2019-05-01T01:16:33.425Z,99.90
2019-05-01T01:19:00.768Z,99.90
2019-05-01T01:21:27.968Z,99.90
2019-05-01T01:23:55.323Z,99.90
2019-05-01T01:26:22.708Z,99.90
2019-05-01T01:28:49.884Z,99.90
2019-05-01T01:31:17.222Z,99.90
2019-05-01T01:33:45.211Z,99.90
2019-05-01T01:36:12.758Z,99.90
2019-05-01T01:38:42.315Z,99.90
2019-05-01T01:41:10.253Z,99.90
2019-05-01T01:43:51.484Z,99.90
2019-05-01T01:46:20.086Z,99.90
2019-05-01T01:48:47.464Z,99.90
2019-05-01T01:51:14.829Z,99.90
2019-05-01T01:53:42.208Z,99.90
2019-05-01T01:56:09.515Z,99.90
2019-05-01T01:58:36.881Z,99.90
2019-05-01T02:01:22.138Z,99.90
2019-05-01T02:03:54.256Z,99.90
2019-05-01T02:06:21.579Z,99.90
2019-05-01T02:08:56.219Z,99.90
2019-05-01T02:11:18.213Z,99.90
2019-05-01T02:13:45.493Z,99.90
2019-05-01T02:16:12.809Z,99.90
2019-05-01T02:18:40.070Z,99.90
2019-05-01T02:21:07.420Z,99.90
2019-05-01T02:23:34.704Z,99.90
2019-05-01T02:26:02.161Z,99.90
2019-05-01T02:28:39.826Z,99.90
2019-05-01T02:31:27.489Z,99.90
2019-05-01T02:33:46.245Z,99.90
2019-05-01T02:36:13.744Z,99.90
2019-05-01T02:38:41.073Z,99.90
2019-05-01T02:41:08.590Z,99.90
2019-05-01T02:43:35.889Z,99.90
2019-05-01T02:46:03.273Z,99.90
2019-05-01T02:48:31.500Z,99.90
2019-05-01T02:50:59.956Z,99.90
2019-05-01T02:53:27.231Z,99.90
2019-05-01T02:56:17.375Z,99.90
2019-05-01T02:58:45.097Z,99.90
2019-05-01T03:01:14.305Z,99.90
2019-05-01T03:03:41.509Z,99.90
2019-05-01T03:06:08.958Z,99.90
2019-05-01T03:08:36.331Z,99.90
2019-05-01T03:11:03.724Z,99.90
2019-05-01T03:13:31.131Z,99.90
2019-05-01T03:15:58.382Z,99.90
2019-05-01T03:18:31.476Z,99.90
2019-05-01T03:21:12.664Z,99.90
2019-05-01T03:23:43.644Z,99.90
2019-05-01T03:26:11.024Z,99.90
2019-05-01T03:28:38.276Z,99.90
2019-05-01T03:31:05.606Z,99.90
2019-05-01T03:33:33.026Z,99.90
2019-05-01T03:36:00.284Z,99.90
2019-05-01T03:38:27.775Z,99.90
2019-05-01T03:40:55.064Z,99.90
2019-05-01T03:43:22.318Z,99.90
2019-05-01T03:45:49.592Z,99.90
2019-05-01T03:48:16.942Z,99.90
2019-05-01T03:50:46.862Z,99.90
2019-05-01T03:53:13.660Z,99.90
2019-05-01T03:55:41.874Z,99.90
2019-05-01T03:58:09.313Z,99.90
2019-05-01T04:01:02.257Z,99.90
2019-05-01T04:03:33.716Z,99.90
2019-05-01T04:06:03.081Z,99.90
2019-05-01T04:08:30.729Z,99.90
2019-05-01T04:10:59.908Z,99.90
2019-05-01T04:13:27.769Z,99.90
2019-05-01T04:15:56.818Z,99.90
2019-05-01T04:18:24.175Z,99.90
2019-05-01T04:20:51.506Z,99.90
2019-05-01T04:23:19.182Z,99.90
2019-05-01T04:25:46.647Z,99.90
2019-05-01T04:28:31.914Z,99.90
2019-05-01T04:31:09.458Z,99.90
2019-05-01T04:33:38.007Z,99.90
2019-05-01T04:36:10.131Z,99.90
2019-05-01T04:38:37.459Z,99.90
2019-05-01T04:41:04.817Z,99.90
2019-05-01T04:43:32.348Z,99.90
2019-05-01T04:45:59.786Z,99.90
2019-05-01T04:48:27.054Z,99.90
2019-05-01T04:50:54.548Z,99.90
2019-05-01T04:53:22.041Z,99.90
2019-05-01T04:55:49.254Z,99.90
2019-05-01T04:58:16.579Z,99.90
2019-05-01T05:00:44.062Z,99.90
2019-05-01T05:03:15.787Z,99.90
2019-05-01T05:05:43.341Z,99.90
2019-05-01T05:08:12.396Z,99.90
2019-05-01T05:10:40.374Z,99.90
2019-05-01T05:13:30.063Z,99.90
2019-05-01T05:16:13.412Z,99.90
2019-05-01T05:18:50.503Z,99.90
2019-05-01T05:21:17.877Z,99.90
2019-05-01T05:23:45.185Z,99.90
2019-05-01T05:26:12.477Z,99.90
2019-05-01T05:28:39.810Z,99.90
2019-05-01T05:31:07.197Z,99.90
2019-05-01T05:33:34.611Z,99.90
2019-05-01T05:36:01.894Z,99.90
2019-05-01T05:38:48.764Z,99.90
2019-05-01T05:41:16.922Z,99.90
2019-05-01T05:43:44.332Z,99.90
2019-05-01T05:46:12.094Z,99.90
2019-05-01T05:48:39.720Z,99.90
2019-05-01T05:51:28.740Z,99.90
2019-05-01T05:53:59.791Z,99.90
2019-05-01T05:56:32.056Z,99.90
2019-05-01T05:59:03.435Z,99.90
2019-05-01T06:01:48.631Z,99.90
2019-05-01T06:04:30.399Z,99.90
2019-05-01T06:07:19.986Z,99.90
2019-05-01T06:09:57.387Z,99.90
2019-05-01T06:12:41.765Z,99.90
2019-05-01T06:15:18.019Z,99.90
2019-05-01T06:17:50.002Z,99.90
2019-05-01T06:20:38.536Z,99.90
2019-05-01T06:23:20.747Z,99.90
2019-05-01T06:25:46.812Z,99.90
2019-05-01T06:28:14.107Z,99.90
2019-05-01T06:30:41.933Z,99.90
2019-05-01T06:33:11.285Z,99.90
2019-05-01T06:35:39.469Z,99.90
2019-05-01T06:38:11.050Z,99.90
2019-05-01T06:40:42.554Z,99.90
2019-05-01T06:43:20.208Z,99.90
2019-05-01T06:45:52.588Z,99.90
2019-05-01T06:48:21.422Z,99.90
2019-05-01T06:50:55.219Z,99.90
2019-05-01T06:53:22.418Z,99.90
2019-05-01T06:55:51.498Z,99.90
2019-05-01T06:58:20.419Z,99.90
2019-05-01T07:00:48.064Z,99.90
2019-05-01T07:03:15.470Z,99.90
2019-05-01T07:05:44.613Z,99.90
2019-05-01T07:08:24.055Z,99.90
2019-05-01T07:10:43.907Z,99.90
2019-05-01T07:13:10.408Z,99.40
2019-05-01T07:15:37.715Z,99.90
2019-05-01T07:18:05.031Z,99.90
2019-05-01T07:20:53.246Z,98.40
2019-05-01T07:23:20.938Z,98.50
2019-05-01T07:25:48.303Z,97.10
2019-05-01T07:28:15.665Z,97.00
2019-05-01T07:30:49.809Z,99.30
2019-05-01T07:33:17.899Z,99.90
2019-05-01T07:35:45.298Z,99.30
2019-05-01T07:38:12.593Z,99.40
2019-05-01T07:40:39.857Z,99.60
2019-05-01T07:43:25.824Z,97.10
2019-05-01T07:46:04.761Z,98.00
2019-05-01T07:48:35.972Z,98.00
2019-05-01T07:51:06.948Z,99.10
2019-05-01T07:53:34.133Z,99.50
2019-05-01T07:56:01.463Z,99.50
2019-05-01T07:58:28.710Z,97.70
2019-05-01T08:01:02.330Z,99.10
2019-05-01T08:03:29.650Z,97.80
2019-05-01T08:05:56.973Z,96.50
2019-05-01T08:08:24.351Z,97.70
2019-05-01T08:10:51.675Z,98.70
2019-05-01T08:13:18.932Z,97.60
2019-05-01T08:15:46.212Z,99.40
2019-05-01T08:18:27.517Z,97.90
2019-05-01T08:21:04.337Z,97.90
2019-05-01T08:23:31.709Z,98.90
2019-05-01T08:25:58.988Z,99.30
2019-05-01T08:28:55.687Z,99.80
2019-05-01T08:31:32.235Z,96.80
2019-05-01T08:34:02.871Z,96.70
2019-05-01T08:36:30.178Z,98.80
2019-05-01T08:38:57.461Z,96.30
2019-05-01T08:41:27.107Z,96.20
2019-05-01T08:43:55.780Z,93.20
2019-05-01T08:46:46.890Z,93.10
2019-05-01T08:49:24.702Z,94.70
2019-05-01T08:51:52.113Z,91.40
2019-05-01T08:54:19.503Z,91.50
2019-05-01T08:56:47.019Z,90.70
2019-05-01T08:59:14.456Z,90.90
2019-05-01T09:01:45.815Z,91.90
2019-05-01T09:04:13.336Z,90.20
2019-05-01T09:06:43.913Z,91.60
2019-05-01T09:09:10.180Z,92.10
2019-05-01T09:11:37.528Z,90.10
2019-05-01T09:14:04.888Z,88.70
2019-05-01T09:16:32.196Z,87.80
2019-05-01T09:18:59.488Z,90.60
2019-05-01T09:21:26.772Z,91.40
2019-05-01T09:23:54.147Z,93.20
2019-05-01T09:26:50.289Z,89.50
2019-05-01T09:29:23.436Z,89.40
2019-05-01T09:31:52.366Z,88.50
2019-05-01T09:34:21.100Z,90.20
2019-05-01T09:36:48.531Z,90.60
2019-05-01T09:39:16.012Z,88.60
2019-05-01T09:41:47.298Z,88.50
2019-05-01T09:44:12.448Z,90.40
2019-05-01T09:46:39.807Z,87.30
2019-05-01T09:49:07.460Z,90.20
2019-05-01T09:51:55.277Z,88.80
2019-05-01T09:54:31.590Z,86.50
2019-05-01T09:56:58.901Z,88.30
2019-05-01T09:59:26.244Z,88.20
2019-05-01T10:01:53.558Z,90.50
2019-05-01T10:04:20.892Z,85.60
2019-05-01T10:06:52.206Z,84.30
2019-05-01T10:09:18.081Z,84.60
2019-05-01T10:11:45.653Z,85.80
2019-05-01T10:14:13.022Z,85.60
2019-05-01T10:16:40.292Z,85.00
2019-05-01T10:19:07.600Z,85.70
2019-05-01T10:21:34.924Z,84.80
2019-05-01T10:24:02.255Z,86.80
2019-05-01T10:26:31.349Z,88.90
2019-05-01T10:29:16.620Z,83.90
2019-05-01T10:32:17.034Z,81.10
2019-05-01T10:35:19.223Z,84.60
2019-05-01T10:37:44.852Z,83.50
2019-05-01T10:40:12.208Z,84.90
2019-05-01T10:42:41.041Z,86.00
2019-05-01T10:45:09.188Z,86.90
2019-05-01T10:47:36.530Z,83.80
2019-05-01T10:50:03.992Z,85.00
2019-05-01T10:52:31.265Z,82.80
2019-05-01T10:54:58.564Z,89.00
2019-05-01T10:57:26.012Z,88.80
2019-05-01T10:59:53.234Z,91.00
2019-05-01T11:02:20.621Z,84.90
2019-05-01T11:04:48.028Z,85.40
2019-05-01T11:07:15.470Z,81.20
2019-05-01T11:09:43.121Z,84.60
2019-05-01T11:12:10.512Z,85.50
2019-05-01T11:14:37.846Z,86.90
2019-05-01T11:17:05.214Z,85.70
2019-05-01T11:19:32.621Z,84.70
2019-05-01T11:21:59.909Z,86.10
2019-05-01T11:24:27.086Z,88.40
2019-05-01T11:26:54.407Z,85.20
2019-05-01T11:29:21.663Z,85.20
2019-05-01T11:32:08.966Z,84.80
2019-05-01T11:34:52.577Z,85.50
2019-05-01T11:37:33.614Z,88.40
2019-05-01T11:40:08.160Z,86.10
2019-05-01T11:42:35.512Z,86.30
2019-05-01T11:45:03.349Z,87.10
2019-05-01T11:47:30.762Z,87.00
2019-05-01T11:49:58.156Z,86.90
2019-05-01T11:52:25.466Z,90.40
2019-05-01T11:54:52.761Z,91.00
2019-05-01T11:57:20.131Z,90.50
2019-05-01T11:59:47.315Z,90.40
2019-05-01T12:02:14.628Z,91.30
2019-05-01T12:04:42.055Z,89.90
2019-05-01T12:07:09.474Z,89.30
2019-05-01T12:09:36.840Z,88.90
2019-05-01T12:12:08.151Z,88.10
2019-05-01T12:14:35.535Z,89.40
2019-05-01T12:17:15.275Z,89.00
2019-05-01T12:19:42.672Z,88.40
2019-05-01T12:22:10.059Z,85.80
2019-05-01T12:24:37.521Z,86.90
2019-05-01T12:27:04.916Z,86.40
2019-05-01T12:29:32.179Z,81.90
2019-05-01T12:31:59.503Z,78.30
2019-05-01T12:34:26.729Z,81.70
2019-05-01T12:37:13.696Z,78.20
2019-05-01T12:39:41.017Z,79.20
2019-05-01T12:42:08.439Z,75.60
2019-05-01T12:44:35.748Z,77.00
2019-05-01T12:47:11.265Z,76.00
2019-05-01T12:49:38.683Z,76.90
2019-05-01T12:52:10.798Z,72.50
2019-05-01T12:55:01.050Z,71.40
2019-05-01T12:57:28.785Z,68.00
2019-05-01T13:00:08.094Z,67.90
2019-05-01T13:02:25.399Z,69.00
2019-05-01T13:04:52.781Z,66.60
2019-05-01T13:07:20.117Z,69.10
2019-05-01T13:09:47.531Z,69.00
2019-05-01T13:12:14.963Z,71.40
2019-05-01T13:14:42.211Z,71.40
2019-05-01T13:17:09.510Z,71.40
2019-05-01T13:19:36.774Z,68.90
2019-05-01T13:22:05.398Z,67.00
2019-05-01T13:24:34.786Z,66.30
2019-05-01T13:27:12.342Z,68.50
2019-05-01T13:30:02.215Z,68.50
2019-05-01T13:32:46.236Z,69.20
2019-05-01T13:35:13.692Z,73.80
2019-05-01T13:37:41.037Z,72.10
2019-05-01T13:40:08.492Z,71.40
2019-05-01T13:42:35.839Z,69.10
2019-05-01T13:45:03.338Z,66.90
2019-05-01T13:47:30.636Z,68.60
2019-05-01T13:49:58.079Z,70.00
2019-05-01T13:52:25.286Z,72.20
2019-05-01T13:54:52.554Z,71.40
2019-05-01T13:57:20.215Z,75.20
2019-05-01T13:59:47.608Z,76.20
2019-05-01T14:02:15.498Z,77.80
2019-05-01T14:04:42.787Z,77.80
2019-05-01T14:07:16.650Z,78.50
2019-05-01T14:09:39.697Z,81.50
2019-05-01T14:12:07.023Z,77.20
2019-05-01T14:14:34.428Z,75.40
2019-05-01T14:17:01.816Z,73.40
2019-05-01T14:19:29.309Z,69.90
2019-05-01T14:22:14.249Z,70.10
2019-05-01T14:24:44.532Z,72.60
2019-05-01T14:27:11.876Z,73.80
2019-05-01T14:29:39.255Z,74.50
2019-05-01T14:32:06.560Z,75.30
2019-05-01T14:34:33.928Z,76.90
2019-05-01T14:37:01.420Z,72.40
2019-05-01T14:39:28.850Z,70.30
2019-05-01T14:41:56.107Z,67.50
2019-05-01T14:44:35.727Z,64.60
2019-05-01T14:46:52.530Z,63.90
2019-05-01T14:49:20.113Z,59.40
2019-05-01T14:51:47.375Z,59.80
2019-05-01T14:54:14.760Z,60.00
2019-05-01T14:56:43.417Z,57.90
2019-05-01T14:59:10.954Z,56.60
2019-05-01T15:01:38.236Z,55.90
2019-05-01T15:04:05.586Z,54.70
2019-05-01T15:06:32.949Z,55.20
2019-05-01T15:09:00.239Z,57.90
2019-05-01T15:11:27.504Z,59.10
2019-05-01T15:14:04.450Z,59.80
2019-05-01T15:16:42.068Z,62.10
2019-05-01T15:19:18.111Z,62.90
2019-05-01T15:21:45.464Z,64.40
2019-05-01T15:24:12.804Z,61.30
2019-05-01T15:26:40.208Z,59.40
2019-05-01T15:29:07.497Z,57.40
2019-05-01T15:31:34.814Z,58.60
2019-05-01T15:34:02.218Z,64.30
2019-05-01T15:36:29.516Z,65.50
2019-05-01T15:38:57.553Z,65.20
2019-05-01T15:41:56.225Z,65.30
2019-05-01T15:44:34.339Z,63.20
2019-05-01T15:47:01.722Z,61.70
2019-05-01T15:49:29.068Z,61.20
2019-05-01T15:51:56.381Z,60.70
2019-05-01T15:54:23.756Z,61.30
2019-05-01T15:56:51.133Z,58.30
2019-05-01T15:59:18.406Z,57.70
2019-05-01T16:01:45.728Z,59.10
2019-05-01T16:04:13.051Z,59.30
2019-05-01T16:06:40.320Z,58.50
2019-05-01T16:09:07.677Z,54.60
2019-05-01T16:12:12.665Z,56.70
2019-05-01T16:14:41.169Z,56.50
2019-05-01T16:17:08.548Z,54.70
2019-05-01T16:19:35.911Z,56.80
2019-05-01T16:22:03.374Z,56.50
2019-05-01T16:24:30.711Z,55.30
2019-05-01T16:26:58.099Z,53.50
2019-05-01T16:29:25.426Z,55.40
2019-05-01T16:31:52.760Z,55.20
2019-05-01T16:34:20.515Z,55.80
2019-05-01T16:36:47.871Z,58.80
2019-05-01T16:39:34.671Z,61.10
2019-05-01T16:42:02.023Z,62.80
2019-05-01T16:44:29.357Z,65.80
2019-05-01T16:46:56.667Z,67.40
2019-05-01T16:49:24.126Z,67.10
2019-05-01T16:51:51.424Z,66.00
2019-05-01T16:54:18.709Z,65.00
2019-05-01T16:56:46.092Z,63.40
2019-05-01T16:59:13.373Z,60.90
2019-05-01T17:01:50.461Z,63.10
2019-05-01T17:04:43.378Z,66.00
2019-05-01T17:07:33.317Z,66.90
2019-05-01T17:10:17.118Z,66.20
2019-05-01T17:12:46.301Z,66.80
2019-05-01T17:15:13.954Z,66.50
2019-05-01T17:17:41.310Z,67.50
2019-05-01T17:20:08.643Z,70.00
2019-05-01T17:22:36.000Z,71.70
2019-05-01T17:25:03.561Z,72.30
2019-05-01T17:27:30.803Z,74.00
2019-05-01T17:29:58.182Z,74.50
2019-05-01T17:32:25.441Z,75.70
2019-05-01T17:34:52.823Z,77.00
2019-05-01T17:37:20.112Z,77.30
2019-05-01T17:39:47.401Z,78.60
2019-05-01T17:42:14.714Z,77.60
2019-05-01T17:44:42.065Z,78.70
2019-05-01T17:47:09.513Z,80.80
2019-05-01T17:49:41.009Z,80.70
2019-05-01T17:52:06.036Z,78.70
2019-05-01T17:54:33.341Z,79.70
2019-05-01T17:57:00.677Z,77.40
2019-05-01T17:59:27.998Z,76.50
2019-05-01T18:02:13.822Z,76.70
2019-05-01T18:04:58.969Z,77.70
2019-05-01T18:07:28.880Z,79.40
2019-05-01T18:09:56.985Z,82.30
2019-05-01T18:12:28.432Z,83.50
2019-05-01T18:14:53.880Z,90.10
2019-05-01T18:17:21.156Z,92.00
2019-05-01T18:19:48.390Z,91.20
2019-05-01T18:22:38.960Z,91.70
2019-05-01T18:25:44.153Z,92.20
2019-05-01T18:28:45.858Z,93.40
2019-05-01T18:31:18.577Z,94.40
2019-05-01T18:33:46.289Z,95.60
2019-05-01T18:36:13.871Z,97.40
2019-05-01T18:38:50.238Z,99.30
2019-05-01T18:41:27.862Z,99.90
2019-05-01T18:43:55.148Z,99.90
2019-05-01T18:46:22.523Z,99.90
2019-05-01T18:48:49.949Z,99.90
2019-05-01T18:51:17.247Z,99.90
2019-05-01T18:53:44.652Z,99.90
2019-05-01T18:56:12.139Z,99.90
2019-05-01T18:58:39.616Z,99.90
2019-05-01T19:01:09.294Z,99.90
2019-05-01T19:03:37.066Z,99.90
2019-05-01T19:06:05.469Z,99.90
2019-05-01T19:08:32.767Z,99.90
2019-05-01T19:11:11.841Z,99.90
2019-05-01T19:13:29.415Z,99.90
2019-05-01T19:15:56.814Z,99.90
2019-05-01T19:18:24.223Z,99.90
2019-05-01T19:20:59.422Z,99.90
2019-05-01T19:23:22.265Z,99.90
2019-05-01T19:25:50.275Z,99.90
2019-05-01T19:28:18.132Z,99.90
2019-05-01T19:30:45.540Z,99.90
2019-05-01T19:33:12.990Z,99.90
2019-05-01T19:35:40.373Z,99.90
2019-05-01T19:38:08.485Z,99.90
2019-05-01T19:40:35.808Z,99.90
2019-05-01T19:43:03.186Z,99.90
2019-05-01T19:45:30.473Z,99.90
2019-05-01T19:47:57.838Z,99.90
2019-05-01T19:50:25.079Z,99.90
2019-05-01T19:52:55.993Z,99.90
2019-05-01T19:55:23.395Z,99.90
2019-05-01T19:57:50.700Z,99.90
2019-05-01T20:00:40.789Z,99.90
2019-05-01T20:03:08.209Z,99.90
2019-05-01T20:05:35.590Z,99.90
2019-05-01T20:08:03.006Z,99.90
2019-05-01T20:10:30.331Z,99.90
2019-05-01T20:12:57.715Z,99.90
2019-05-01T20:15:26.589Z,99.90
2019-05-01T20:17:53.973Z,99.90
2019-05-01T20:20:21.363Z,99.90
2019-05-01T20:22:53.207Z,99.90
2019-05-01T20:25:19.378Z,99.90
2019-05-01T20:27:50.528Z,99.90
2019-05-01T20:30:16.614Z,99.90
2019-05-01T20:32:44.034Z,99.90
2019-05-01T20:35:11.388Z,99.90
2019-05-01T20:37:38.717Z,99.90
2019-05-01T20:40:11.256Z,99.90
2019-05-01T20:42:35.278Z,99.90
2019-05-01T20:45:05.393Z,99.90
2019-05-01T20:47:35.280Z,99.90
2019-05-01T20:50:01.198Z,99.90
2019-05-01T20:52:28.576Z,99.90
2019-05-01T20:54:55.830Z,99.90
2019-05-01T20:57:27.864Z,99.90
2019-05-01T20:59:55.082Z,99.90
2019-05-01T21:02:22.476Z,99.90
2019-05-01T21:05:09.368Z,99.90
2019-05-01T21:07:41.940Z,99.90
2019-05-01T21:10:09.347Z,99.90
2019-05-01T21:12:36.739Z,99.90
2019-05-01T21:15:04.248Z,99.90
2019-05-01T21:17:31.613Z,99.90
2019-05-01T21:19:58.895Z,99.90
2019-05-01T21:22:26.087Z,99.90
2019-05-01T21:24:53.394Z,99.90
2019-05-01T21:27:20.771Z,99.90
2019-05-01T21:29:47.983Z,99.90
2019-05-01T21:32:18.396Z,99.90
2019-05-01T21:34:44.595Z,99.90
2019-05-01T21:37:12.015Z,99.90
2019-05-01T21:39:39.428Z,99.90
2019-05-01T21:42:11.548Z,99.90
2019-05-01T21:44:35.955Z,99.90
2019-05-01T21:47:03.945Z,99.90
2019-05-01T21:49:33.153Z,99.90
2019-05-01T21:52:00.303Z,99.90
2019-05-01T21:54:27.619Z,99.90
2019-05-01T21:56:54.996Z,99.90
2019-05-01T21:59:22.274Z,99.90
2019-05-01T22:01:49.570Z,99.90
2019-05-01T22:04:16.865Z,99.90
2019-05-01T22:06:46.756Z,99.90
2019-05-01T22:09:17.264Z,99.90
2019-05-01T22:11:44.731Z,99.90
2019-05-01T22:14:16.567Z,99.90
2019-05-01T22:16:43.900Z,99.90
2019-05-01T22:19:16.460Z,99.90
2019-05-01T22:22:00.145Z,99.90
2019-05-01T22:24:58.983Z,99.90
2019-05-01T22:27:33.112Z,99.90
2019-05-01T22:30:12.626Z,99.90
2019-05-01T22:32:43.611Z,99.90
2019-05-01T22:35:19.146Z,99.90
2019-05-01T22:37:46.626Z,99.90
2019-05-01T22:40:15.749Z,99.90
2019-05-01T22:42:43.097Z,99.90
2019-05-01T22:45:18.342Z,99.90
2019-05-01T22:47:46.109Z,99.90
2019-05-01T22:50:14.863Z,99.90
2019-05-01T22:52:42.195Z,99.90
2019-05-01T22:55:09.543Z,99.90
2019-05-01T22:57:36.980Z,99.90
2019-05-01T23:00:05.732Z,99.90
2019-05-01T23:02:38.977Z,99.90
2019-05-01T23:05:06.651Z,99.90
2019-05-01T23:07:33.956Z,99.90
2019-05-01T23:10:03.315Z,99.90
2019-05-01T23:12:30.603Z,99.90
2019-05-01T23:14:58.004Z,99.90
2019-05-01T23:17:34.904Z,99.90
2019-05-01T23:20:03.958Z,99.90
2019-05-01T23:22:30.593Z,99.90
2019-05-01T23:24:57.869Z,99.90
2019-05-01T23:27:29.391Z,99.90
2019-05-01T23:29:54.335Z,99.90
2019-05-01T23:32:21.652Z,99.90
2019-05-01T23:34:49.019Z,99.90
2019-05-01T23:37:16.328Z,99.90
2019-05-01T23:39:43.643Z,99.90
2019-05-01T23:42:10.978Z,99.90
2019-05-01T23:44:42.841Z,99.90
2019-05-01T23:47:07.505Z,99.90
2019-05-01T23:49:34.820Z,99.90
2019-05-01T23:52:03.320Z,99.90
2019-05-01T23:54:31.342Z,99.90
2019-05-01T23:56:58.763Z,99.90
2019-05-01T23:59:26.188Z,99.90
